createdAt,value
2023-01-30T01:38:24.395Z,8.10
2023-01-30T01:41:02.085Z,8.50
2023-01-30T01:43:34.183Z,9.00
2023-01-30T01:46:16.840Z,8.30
2023-01-30T01:48:48.691Z,7.60
2023-01-30T01:51:17.988Z,9.00
2023-01-30T01:53:50.505Z,8.60
2023-01-30T01:56:18.111Z,7.70
2023-01-30T01:58:54.507Z,7.60
2023-01-30T02:01:23.350Z,8.20
2023-01-30T02:03:54.280Z,8.70
2023-01-30T02:06:21.356Z,8.60
2023-01-30T02:08:54.613Z,7.80
2023-01-30T02:11:47.274Z,8.80
2023-01-30T02:14:14.225Z,8.60
2023-01-30T02:16:41.805Z,9.50
2023-01-30T02:19:24.911Z,9.30
2023-01-30T02:22:27.694Z,9.10
2023-01-30T02:25:08.888Z,9.50
2023-01-30T02:27:54.213Z,10.60
2023-01-30T02:30:56.160Z,10.60
2023-01-30T02:33:43.804Z,11.60
2023-01-30T02:36:43.787Z,10.50
2023-01-30T02:39:58.203Z,10.50
2023-01-30T02:42:52.284Z,12.90
2023-01-30T02:45:38.184Z,14.50
2023-01-30T02:48:30.728Z,13.00
2023-01-30T02:51:26.672Z,12.60
2023-01-30T02:53:53.585Z,13.70
2023-01-30T02:56:20.742Z,14.40
2023-01-30T02:58:58.872Z,15.20
2023-01-30T03:02:04.986Z,13.70
2023-01-30T03:04:54.063Z,14.70
2023-01-30T03:07:34.325Z,13.80
2023-01-30T03:10:01.518Z,13.30
2023-01-30T03:12:48.731Z,13.50
2023-01-30T03:15:23.035Z,13.80
2023-01-30T03:17:50.019Z,12.50
2023-01-30T03:20:18.682Z,13.30
2023-01-30T03:22:46.335Z,14.10
2023-01-30T03:25:17.557Z,15.00
2023-01-30T03:27:45.754Z,14.60
2023-01-30T03:30:14.040Z,15.90
2023-01-30T03:32:41.792Z,14.60
2023-01-30T03:35:08.940Z,17.90
2023-01-30T03:37:37.606Z,17.20
2023-01-30T03:40:05.994Z,15.20
2023-01-30T03:42:33.755Z,13.10
2023-01-30T03:45:08.518Z,13.20
2023-01-30T03:47:36.065Z,12.80
2023-01-30T03:50:03.316Z,12.60
2023-01-30T03:52:34.042Z,12.70
2023-01-30T03:55:01.292Z,11.90
2023-01-30T03:57:29.226Z,14.70
2023-01-30T03:59:56.209Z,13.40
2023-01-30T04:02:25.670Z,13.10
2023-01-30T04:04:52.919Z,12.00
2023-01-30T04:07:21.308Z,13.30
2023-01-30T04:09:49.433Z,12.50
2023-01-30T04:12:17.555Z,15.50
2023-01-30T04:14:50.579Z,20.80
2023-01-30T04:17:37.608Z,19.10
2023-01-30T04:20:25.554Z,17.00
2023-01-30T04:22:55.552Z,17.70
2023-01-30T04:25:25.085Z,13.90
2023-01-30T04:27:53.543Z,15.10
2023-01-30T04:30:24.337Z,16.50
2023-01-30T04:32:59.605Z,16.80
2023-01-30T04:35:27.073Z,18.20
2023-01-30T04:37:54.688Z,17.50
2023-01-30T04:40:28.656Z,17.00
2023-01-30T04:42:56.000Z,15.20
2023-01-30T04:45:46.007Z,15.90
2023-01-30T04:48:15.268Z,16.40
2023-01-30T04:50:43.449Z,17.50
2023-01-30T04:53:10.457Z,15.50
2023-01-30T04:55:38.852Z,17.10
2023-01-30T04:58:07.151Z,16.70
2023-01-30T05:00:35.464Z,16.90
2023-01-30T05:03:06.559Z,19.80
2023-01-30T05:05:34.621Z,28.30
2023-01-30T05:08:02.596Z,24.10
2023-01-30T05:10:29.861Z,26.10
2023-01-30T05:13:01.716Z,23.90
2023-01-30T05:15:28.725Z,21.90
2023-01-30T05:17:55.694Z,22.80
2023-01-30T05:20:22.717Z,23.50
2023-01-30T05:22:53.348Z,26.60
2023-01-30T05:25:20.589Z,30.50
2023-01-30T05:27:49.054Z,27.50
2023-01-30T05:30:19.303Z,25.90
2023-01-30T05:32:46.389Z,26.00
2023-01-30T05:35:13.324Z,24.30
2023-01-30T05:37:41.536Z,24.40
2023-01-30T05:40:09.819Z,21.40
2023-01-30T05:42:36.866Z,20.70
2023-01-30T05:45:06.525Z,21.60
2023-01-30T05:47:33.693Z,21.20
2023-01-30T05:50:01.684Z,21.30
2023-01-30T05:52:29.003Z,23.10
2023-01-30T05:54:57.994Z,25.00
2023-01-30T05:57:27.960Z,26.60
2023-01-30T05:59:54.854Z,27.00
2023-01-30T06:02:23.452Z,26.30
2023-01-30T06:04:53.391Z,32.60
2023-01-30T06:07:21.070Z,39.20
2023-01-30T06:09:48.093Z,33.90
2023-01-30T06:12:15.101Z,24.90
2023-01-30T06:14:43.579Z,20.50
2023-01-30T06:17:13.073Z,24.60
2023-01-30T06:19:40.426Z,25.30
2023-01-30T06:22:07.416Z,25.00
2023-01-30T06:24:34.875Z,22.60
2023-01-30T06:27:02.774Z,23.00
2023-01-30T06:29:30.426Z,22.90
2023-01-30T06:31:57.648Z,24.40
2023-01-30T06:34:24.885Z,24.80
2023-01-30T06:36:52.271Z,23.00
2023-01-30T06:39:19.287Z,23.50
2023-01-30T06:41:46.358Z,21.60
2023-01-30T06:44:13.273Z,19.40
2023-01-30T06:46:40.426Z,21.30
2023-01-30T06:49:07.417Z,18.30
2023-01-30T06:51:35.219Z,18.20
2023-01-30T06:54:02.292Z,17.10
2023-01-30T06:56:29.689Z,15.90
2023-01-30T06:58:56.683Z,14.80
2023-01-30T07:01:24.060Z,14.40
2023-01-30T11:30:48.428Z,16.40
2023-01-30T11:33:18.724Z,15.50
2023-01-30T11:35:58.031Z,16.00
2023-01-30T11:38:28.125Z,17.50
2023-01-30T11:41:02.483Z,16.40
2023-01-30T11:43:34.220Z,15.60
2023-01-30T11:46:07.647Z,17.30
2023-01-30T11:49:04.133Z,18.10
2023-01-30T11:51:37.174Z,17.70
2023-01-30T11:54:06.837Z,18.00
2023-01-30T11:56:36.536Z,17.40
2023-01-30T11:59:19.955Z,17.50
2023-01-30T12:01:48.118Z,18.40
2023-01-30T12:04:15.978Z,13.90
2023-01-30T12:06:43.199Z,14.70
2023-01-30T12:09:38.656Z,11.90
2023-01-30T12:12:30.728Z,10.50
2023-01-30T12:15:06.722Z,9.90
2023-01-30T12:17:46.176Z,8.90
2023-01-30T12:20:24.683Z,9.00
2023-01-30T12:23:07.649Z,9.00
2023-01-30T12:25:39.778Z,11.60
2023-01-30T12:28:35.305Z,9.40
2023-01-30T12:31:35.924Z,8.70
2023-01-30T12:34:03.724Z,8.80
2023-01-30T12:36:34.047Z,10.20
2023-01-30T12:39:28.698Z,7.90
2023-01-30T12:42:23.819Z,7.10
2023-01-30T12:45:14.808Z,8.00
2023-01-30T12:48:13.065Z,8.60
2023-01-30T12:50:54.683Z,9.40
2023-01-30T12:53:45.653Z,11.20
2023-01-30T12:56:30.661Z,12.70
2023-01-30T12:59:43.869Z,11.70
2023-01-30T13:02:52.239Z,13.60
2023-01-30T13:05:59.584Z,10.90
2023-01-30T13:08:57.932Z,11.60
2023-01-30T13:11:38.151Z,11.80
2023-01-30T13:14:31.733Z,10.20
2023-01-30T13:17:14.222Z,7.60
2023-01-30T13:20:01.402Z,7.40
2023-01-30T13:22:56.280Z,7.90
2023-01-30T13:25:29.539Z,9.60
2023-01-30T13:28:03.048Z,9.20
2023-01-30T13:30:30.391Z,8.60
2023-01-30T13:32:59.224Z,9.40
2023-01-30T13:35:30.520Z,8.10
2023-01-30T13:37:57.583Z,8.80
2023-01-30T13:40:28.770Z,8.00
2023-01-30T13:43:07.668Z,8.20
2023-01-30T13:45:36.795Z,9.10
2023-01-30T13:48:42.444Z,11.10
2023-01-30T13:51:26.036Z,10.80
2023-01-30T13:53:56.063Z,13.70
2023-01-30T13:56:43.335Z,11.50
2023-01-30T13:59:29.866Z,8.90
2023-01-30T14:02:03.029Z,10.50
2023-01-30T14:04:42.279Z,13.50
2023-01-30T14:07:21.401Z,11.60
2023-01-30T14:10:06.357Z,12.80
2023-01-30T14:12:41.015Z,15.60
2023-01-30T14:15:14.156Z,15.90
2023-01-30T14:18:01.828Z,17.10
2023-01-30T14:20:30.729Z,11.90
2023-01-30T14:22:58.739Z,12.20
2023-01-30T14:25:29.816Z,13.60
2023-01-30T14:27:59.975Z,14.00
2023-01-30T14:30:48.720Z,15.20
2023-01-30T14:33:19.225Z,16.90
2023-01-30T14:36:02.352Z,14.50
2023-01-30T14:38:34.367Z,15.10
2023-01-30T14:41:01.343Z,16.10
2023-01-30T14:43:38.018Z,25.70
2023-01-30T14:46:08.517Z,23.40
2023-01-30T14:48:41.741Z,22.10
2023-01-30T14:51:38.159Z,22.80
2023-01-30T14:54:12.201Z,22.20
2023-01-30T14:56:58.593Z,22.00
2023-01-30T15:00:16.177Z,21.00
2023-01-30T15:02:51.308Z,19.40
2023-01-30T15:05:20.978Z,20.90
2023-01-30T15:08:01.953Z,21.90
2023-01-30T15:10:38.398Z,23.00
2023-01-30T15:13:22.889Z,23.40
2023-01-30T15:16:16.574Z,26.50
2023-01-30T15:19:02.205Z,27.80
2023-01-30T15:21:36.774Z,23.80
2023-01-30T15:24:26.308Z,30.40
2023-01-30T15:27:21.085Z,23.30
2023-01-30T15:29:57.703Z,26.80
2023-01-30T15:32:26.318Z,34.90
2023-01-30T15:35:18.200Z,34.30
2023-01-30T15:37:45.476Z,32.60
2023-01-30T15:40:15.460Z,26.00
2023-01-30T15:42:45.133Z,25.50
2023-01-30T15:45:21.100Z,26.90
2023-01-30T15:48:15.465Z,29.80
2023-01-30T15:50:53.567Z,33.60
2023-01-30T15:53:33.006Z,37.90
2023-01-30T15:56:01.177Z,49.00
2023-01-30T15:58:28.118Z,50.70
2023-01-30T16:00:59.915Z,48.30
2023-01-30T16:03:36.383Z,61.70
2023-01-30T16:06:03.617Z,54.10
2023-01-30T16:08:33.861Z,60.00
2023-01-30T16:11:03.549Z,48.70
2023-01-30T16:13:32.761Z,50.30
2023-01-30T20:15:30.034Z,8.50
2023-01-30T20:36:31.403Z,6.40
2023-01-30T20:39:21.253Z,8.50
2023-01-30T20:41:58.985Z,8.10
2023-01-30T20:44:52.854Z,8.80
2023-01-30T20:47:39.630Z,8.40
2023-01-30T20:50:43.343Z,8.70
2023-01-30T20:53:21.452Z,9.60
2023-01-30T20:55:59.192Z,8.50
2023-01-30T21:07:52.155Z,8.20
2023-01-30T21:10:24.945Z,7.00
2023-01-30T21:13:06.352Z,7.90
2023-01-30T21:15:35.876Z,7.60
2023-01-30T21:18:03.089Z,8.60
2023-01-30T21:20:30.285Z,8.00
2023-01-30T21:22:57.580Z,8.40
2023-01-30T21:25:30.305Z,7.90
2023-01-30T21:27:57.624Z,8.20
2023-01-30T21:33:33.090Z,8.40
2023-01-30T21:36:02.421Z,8.00
2023-01-30T21:38:51.948Z,7.60
2023-01-30T21:41:51.581Z,8.50
2023-01-30T21:44:27.317Z,7.20
2023-01-30T21:49:35.838Z,8.30
2023-01-30T21:52:06.385Z,7.90
2023-01-30T21:54:34.222Z,7.80
2023-01-30T21:57:04.219Z,7.00
2023-01-30T21:59:32.865Z,8.00
2023-01-30T22:02:03.818Z,6.90
2023-01-30T22:04:34.538Z,10.10
2023-01-30T22:07:05.276Z,8.20
2023-01-30T22:09:34.355Z,8.80
2023-01-30T22:12:02.419Z,8.00
2023-01-30T22:14:30.531Z,8.10
2023-01-30T22:16:57.965Z,7.60
2023-01-30T22:19:27.998Z,8.40
2023-01-30T22:21:57.142Z,7.50
2023-01-30T22:24:27.698Z,8.40
2023-01-30T22:26:55.928Z,7.30
2023-01-30T22:29:23.064Z,7.00
2023-01-30T22:31:51.863Z,7.00
2023-01-30T22:34:19.259Z,7.10
2023-01-30T22:36:49.333Z,7.70
2023-01-30T22:39:17.345Z,10.80
2023-01-30T22:41:46.289Z,7.70
2023-01-30T22:44:14.404Z,7.00
2023-01-30T22:46:41.772Z,9.00
2023-01-30T22:49:08.882Z,7.70
2023-01-30T22:51:43.143Z,7.80
2023-01-30T22:54:15.139Z,7.70
2023-01-30T22:56:47.550Z,7.20
2023-01-30T23:01:50.558Z,6.80
2023-01-30T23:04:19.736Z,7.10
2023-01-30T23:06:48.412Z,6.40
2023-01-30T23:09:17.861Z,6.60
2023-01-30T23:12:12.753Z,6.90
2023-01-30T23:14:42.389Z,7.60
2023-01-30T23:17:31.457Z,9.40
2023-01-30T23:19:59.010Z,9.20
2023-01-30T23:22:26.011Z,8.80
2023-01-30T23:24:52.985Z,7.40
2023-01-30T23:27:20.172Z,8.70
2023-01-30T23:29:47.428Z,7.80
2023-01-30T23:32:14.647Z,7.40
2023-01-30T23:34:42.438Z,8.30
2023-01-30T23:37:09.292Z,8.80
2023-01-30T23:39:40.038Z,8.40
2023-01-30T23:42:07.957Z,7.90
2023-01-30T23:44:36.497Z,9.90
2023-01-30T23:47:04.845Z,9.20
2023-01-30T23:49:32.827Z,8.20
2023-01-30T23:51:59.794Z,9.20
2023-01-30T23:54:32.509Z,9.60
2023-01-30T23:56:59.613Z,9.10
2023-01-30T23:59:27.255Z,9.00
